Time;durP1;ratioP1;P1;durP2;ratioP2;P2;SDS_P1;SDS_P2;PMS_P1;PMS_P2;Temp;Humidity;BMP_temperature;BMP_pressure;BME280_temperature;BME280_humidity;BME280_pressure;Samples;Min_cycle;Max_cycle;Signal;HPM_P1;HPM_P2
2023/02/01 00:00:49;;;;;;;19.93;6.43;;;5.60;99.90;;;;;;5031758;28;20541;-53
2023/02/01 00:03:14;;;;;;;23.40;6.10;;;5.60;99.90;;;;;;5030268;28;20021;-51
2023/02/01 00:05:40;;;;;;;19.07;5.00;;;5.60;99.90;;;;;;5031451;28;20516;-51
2023/02/01 00:08:06;;;;;;;17.47;4.83;;;5.70;99.90;;;;;;5031256;28;20037;-49
2023/02/01 00:10:31;;;;;;;22.23;5.30;;;5.70;99.90;;;;;;5031407;28;20033;-53
2023/02/01 00:12:57;;;;;;;20.47;4.97;;;5.70;99.90;;;;;;5031260;28;20036;-51
2023/02/01 00:15:23;;;;;;;17.50;4.27;;;5.70;99.90;;;;;;5031178;28;20045;-53
2023/02/01 00:17:54;;;;;;;16.77;4.30;;;5.70;99.90;;;;;;5012785;28;20058;-53
2023/02/01 00:20:19;;;;;;;22.57;5.40;;;5.70;99.90;;;;;;5011601;28;20040;-52
2023/02/01 00:22:45;;;;;;;18.00;5.00;;;5.60;99.90;;;;;;5011400;28;20030;-54
2023/02/01 00:25:11;;;;;;;23.27;4.23;;;5.60;99.90;;;;;;5011232;28;20045;-53
2023/02/01 00:27:36;;;;;;;14.80;4.33;;;5.70;99.90;;;;;;5011031;28;20033;-53
2023/02/01 00:30:03;;;;;;;15.00;4.27;;;5.70;99.90;;;;;;5010049;28;20041;-52
2023/02/01 00:32:28;;;;;;;22.80;4.63;;;5.70;99.90;;;;;;5010123;28;20041;-51
2023/02/01 00:34:54;;;;;;;20.20;4.30;;;5.70;99.90;;;;;;5011088;28;20109;-53
2023/02/01 00:37:20;;;;;;;19.67;4.27;;;5.80;99.90;;;;;;5011248;28;20029;-53
2023/02/01 00:39:47;;;;;;;16.43;4.17;;;5.70;99.90;;;;;;5011122;28;20106;-51
2023/02/01 00:42:13;;;;;;;18.50;5.00;;;5.70;99.90;;;;;;5011210;28;20372;-52
2023/02/01 00:44:38;;;;;;;21.23;5.20;;;5.80;99.90;;;;;;5011011;28;20038;-50
2023/02/01 00:47:04;;;;;;;23.03;5.07;;;5.70;99.90;;;;;;5009955;28;20034;-53
2023/02/01 00:49:30;;;;;;;17.73;4.80;;;5.70;99.90;;;;;;5011204;28;20095;-54
2023/02/01 00:51:55;;;;;;;24.83;5.40;;;5.70;99.90;;;;;;5010011;28;20034;-52
2023/02/01 00:54:21;;;;;;;19.13;6.07;;;5.70;99.90;;;;;;5010490;28;20080;-52
2023/02/01 00:56:47;;;;;;;26.00;6.70;;;5.70;99.90;;;;;;5010831;28;20383;-52
2023/02/01 00:59:13;;;;;;;22.77;7.20;;;5.70;99.90;;;;;;5010018;28;20121;-53
2023/02/01 01:01:38;;;;;;;27.33;7.47;;;5.80;99.90;;;;;;5009982;28;20553;-53
2023/02/01 01:04:04;;;;;;;26.67;7.67;;;5.80;99.90;;;;;;5010990;28;20477;-52
2023/02/01 01:06:32;;;;;;;22.73;7.47;;;5.80;99.90;;;;;;5011097;28;20032;-52
2023/02/01 01:09:00;;;;;;;19.27;6.87;;;5.90;99.90;;;;;;5009753;28;20029;-54
2023/02/01 01:11:29;;;;;;;22.67;7.73;;;5.90;99.90;;;;;;5009790;28;20053;-52
2023/02/01 01:13:57;;;;;;;24.67;7.40;;;5.90;99.90;;;;;;5009598;28;20026;-52
2023/02/01 01:16:24;;;;;;;23.17;7.57;;;5.90;99.90;;;;;;5010986;28;20095;-52
2023/02/01 01:18:50;;;;;;;23.13;6.93;;;5.90;99.90;;;;;;4993768;28;20030;-53
2023/02/01 01:21:17;;;;;;;20.77;7.30;;;5.90;99.90;;;;;;5010870;28;20022;-51
2023/02/01 01:23:44;;;;;;;23.27;7.90;;;5.90;99.90;;;;;;5010926;28;20045;-53
2023/02/01 01:26:16;;;;;;;25.37;7.50;;;5.90;99.90;;;;;;5010940;28;20033;-53
2023/02/01 01:28:42;;;;;;;24.47;8.00;;;5.90;99.90;;;;;;5009765;28;20510;-50
2023/02/01 01:31:10;;;;;;;21.63;6.93;;;5.90;99.90;;;;;;5009648;28;20073;-52
2023/02/01 01:33:36;;;;;;;23.90;6.50;;;5.90;99.90;;;;;;5009499;28;20487;-52
2023/02/01 01:36:05;;;;;;;27.03;6.93;;;6.00;99.90;;;;;;5010779;28;20030;-50
2023/02/01 01:38:30;;;;;;;19.70;6.88;;;5.90;99.90;;;;;;5010587;28;20022;-52
2023/02/01 01:40:57;;;;;;;17.10;6.47;;;5.90;99.90;;;;;;5009489;28;20113;-51
2023/02/01 01:43:23;;;;;;;20.40;6.10;;;5.90;99.90;;;;;;5010333;28;20117;-49
2023/02/01 01:45:50;;;;;;;21.97;6.03;;;5.90;99.90;;;;;;5009559;28;20038;-51
2023/02/01 01:48:29;;;;;;;19.17;5.67;;;5.90;99.90;;;;;;5010338;28;20038;-52
2023/02/01 01:51:01;;;;;;;20.90;5.17;;;5.90;99.90;;;;;;5009382;28;20048;-50
2023/02/01 01:53:33;;;;;;;25.13;5.17;;;5.90;99.90;;;;;;5008983;28;20446;-53
2023/02/01 01:56:00;;;;;;;21.43;5.77;;;5.90;99.90;;;;;;5026772;28;20034;-52
2023/02/01 01:58:28;;;;;;;17.63;4.60;;;5.90;99.90;;;;;;5029984;28;20056;-52
2023/02/01 02:00:55;;;;;;;24.03;5.00;;;5.80;99.90;;;;;;5030172;28;20021;-52
2023/02/01 02:03:26;;;;;;;19.83;4.57;;;5.80;99.90;;;;;;5028593;28;20030;-52
2023/02/01 02:05:57;;;;;;;18.20;5.07;;;5.70;99.90;;;;;;5028448;28;20132;-52
2023/02/01 02:08:25;;;;;;;17.33;4.40;;;5.70;99.90;;;;;;5032184;28;20401;-50
2023/02/01 02:11:00;;;;;;;17.77;4.47;;;5.70;99.90;;;;;;5032476;28;20030;-51
2023/02/01 02:13:39;;;;;;;23.13;4.57;;;5.60;99.90;;;;;;5031984;28;20565;-52
2023/02/01 02:16:31;;;;;;;20.08;4.20;;;5.60;99.90;;;;;;5033686;28;20036;-49
2023/02/01 02:19:03;;;;;;;18.40;4.80;;;5.60;99.90;;;;;;5032194;28;20041;-53
2023/02/01 02:22:16;;;;;;;16.90;4.30;;;5.60;99.90;;;;;;5033596;28;20022;-52
2023/02/01 02:25:30;;;;;;;19.27;3.67;;;5.50;99.90;;;;;;5001635;28;20044;-51
2023/02/01 02:28:31;;;;;;;19.40;3.90;;;5.50;99.90;;;;;;4996188;28;20500;-53
2023/02/01 02:31:18;;;;;;;15.17;3.80;;;5.40;99.90;;;;;;5033387;28;20101;-52
2023/02/01 02:33:51;;;;;;;17.20;3.30;;;5.40;99.90;;;;;;5031892;28;20032;-51
2023/02/01 02:36:43;;;;;;;15.30;3.23;;;5.40;99.90;;;;;;5032869;28;20030;-53
2023/02/01 02:39:54;;;;;;;21.07;3.40;;;5.40;99.90;;;;;;5031861;28;20116;-51
2023/02/01 02:48:42;;;;;;;16.50;3.20;;;5.20;99.90;;;;;;5032863;28;20029;-52
2023/02/01 03:05:18;;;;;;;20.90;3.20;;;5.00;99.90;;;;;;5032540;28;20087;-53
2023/02/01 03:08:02;;;;;;;13.37;2.83;;;4.90;99.90;;;;;;5031039;28;20034;-52
2023/02/01 03:10:49;;;;;;;16.13;3.37;;;5.00;99.90;;;;;;5032654;28;20038;-53
2023/02/01 03:13:46;;;;;;;20.90;3.43;;;5.00;99.90;;;;;;5031189;28;20509;-52
2023/02/01 03:16:14;;;;;;;18.07;3.77;;;5.10;99.90;;;;;;5031497;28;20509;-53
2023/02/01 03:18:53;;;;;;;15.07;3.03;;;5.00;99.90;;;;;;5030066;28;20033;-53
2023/02/01 03:21:29;;;;;;;22.80;3.80;;;5.00;99.90;;;;;;5031151;28;20036;-53
2023/02/01 03:24:00;;;;;;;16.97;3.03;;;5.00;99.90;;;;;;5030878;28;20112;-53
2023/02/01 03:26:30;;;;;;;23.27;4.57;;;5.00;99.90;;;;;;5032091;28;20053;-52
2023/02/01 03:29:05;;;;;;;21.93;3.87;;;5.10;99.90;;;;;;5030871;28;20032;-54
2023/02/01 03:31:31;;;;;;;22.10;3.73;;;5.10;99.90;;;;;;5032328;28;20037;-54
2023/02/01 03:33:58;;;;;;;21.53;4.20;;;5.10;99.90;;;;;;5030516;28;20120;-52
2023/02/01 03:36:35;;;;;;;19.97;3.97;;;5.10;99.90;;;;;;5030632;28;20033;-53
2023/02/01 03:39:08;;;;;;;19.00;3.67;;;5.20;99.90;;;;;;5030652;28;20128;-52
2023/02/01 03:41:40;;;;;;;16.50;3.60;;;5.20;99.90;;;;;;5030844;28;20037;-53
2023/02/01 03:44:09;;;;;;;24.63;4.73;;;5.30;99.90;;;;;;5030326;28;20033;-53
2023/02/01 03:46:44;;;;;;;15.18;3.72;;;5.30;99.90;;;;;;5030616;28;20037;-52
2023/02/01 03:49:19;;;;;;;15.83;3.83;;;5.30;99.90;;;;;;5030442;28;20029;-53
2023/02/01 03:51:48;;;;;;;17.60;3.80;;;5.30;99.90;;;;;;5030601;28;20040;-53
2023/02/01 03:54:15;;;;;;;20.00;3.47;;;5.30;99.90;;;;;;5031409;28;20036;-52
2023/02/01 03:56:44;;;;;;;20.77;4.87;;;5.30;99.90;;;;;;5031634;28;20096;-52
2023/02/01 03:59:11;;;;;;;33.38;8.85;;;5.30;99.90;;;;;;5030345;28;20029;-52
2023/02/01 04:01:37;;;;;;;20.57;4.03;;;5.30;99.90;;;;;;5030319;28;20506;-53
2023/02/01 04:04:03;;;;;;;22.37;3.77;;;5.30;99.90;;;;;;5031787;28;20124;-54
2023/02/01 04:06:29;;;;;;;19.87;4.10;;;5.30;99.90;;;;;;5030098;28;20021;-53
2023/02/01 04:08:59;;;;;;;20.10;4.50;;;5.30;99.90;;;;;;5030237;28;20510;-52
2023/02/01 04:11:27;;;;;;;23.40;4.37;;;5.30;99.90;;;;;;5031625;28;20029;-53
2023/02/01 04:13:53;;;;;;;19.03;3.77;;;5.30;99.90;;;;;;5031256;28;20401;-54
2023/02/01 04:16:18;;;;;;;21.03;4.00;;;5.20;99.90;;;;;;5031252;28;20033;-54
2023/02/01 04:18:44;;;;;;;18.27;4.00;;;5.20;99.90;;;;;;5032019;28;20036;-54
2023/02/01 04:21:10;;;;;;;19.27;3.77;;;5.20;99.90;;;;;;5030436;28;20053;-51
2023/02/01 04:23:36;;;;;;;17.37;4.10;;;5.10;99.90;;;;;;5027337;28;20210;-50
2023/02/01 04:26:04;;;;;;;17.37;4.67;;;5.10;99.90;;;;;;5029760;28;20033;-53
2023/02/01 04:28:30;;;;;;;21.87;4.20;;;5.10;99.90;;;;;;5024174;28;20398;-52
2023/02/01 04:30:56;;;;;;;25.53;4.47;;;5.10;99.90;;;;;;5027281;28;20091;-53
2023/02/01 04:33:22;;;;;;;19.07;3.80;;;5.10;99.90;;;;;;5029835;28;20038;-52
2023/02/01 04:35:48;;;;;;;23.43;4.43;;;5.10;99.90;;;;;;5029543;28;20320;-52
2023/02/01 04:38:14;;;;;;;28.67;5.00;;;5.10;99.90;;;;;;5029409;28;20087;-52
2023/02/01 04:40:39;;;;;;;21.70;4.20;;;5.10;99.90;;;;;;5029452;28;20029;-53
2023/02/01 04:43:05;;;;;;;19.40;3.80;;;5.10;99.90;;;;;;5028990;28;20167;-53
2023/02/01 04:45:31;;;;;;;16.17;3.73;;;5.10;99.90;;;;;;5029338;28;20033;-50
2023/02/01 04:47:57;;;;;;;26.93;3.63;;;5.10;99.90;;;;;;5029537;28;20087;-52
2023/02/01 04:50:23;;;;;;;17.40;3.63;;;5.20;99.90;;;;;;5029149;28;20437;-49
2023/02/01 04:52:49;;;;;;;23.80;3.60;;;5.20;99.90;;;;;;5029290;28;20160;-50
2023/02/01 04:55:15;;;;;;;21.03;3.37;;;5.20;99.90;;;;;;5028569;28;20138;-50
2023/02/01 04:57:41;;;;;;;19.03;4.00;;;5.30;99.90;;;;;;5028966;28;20032;-51
2023/02/01 05:00:08;;;;;;;23.30;3.77;;;5.20;99.90;;;;;;5028299;28;20048;-52
2023/02/01 05:02:35;;;;;;;25.57;4.07;;;5.20;99.90;;;;;;5029335;28;20033;-53
2023/02/01 05:05:01;;;;;;;19.03;3.53;;;5.20;99.90;;;;;;5025805;28;20040;-53
2023/02/01 05:07:27;;;;;;;25.60;3.50;;;5.20;99.90;;;;;;5009884;28;20109;-51
2023/02/01 05:09:53;;;;;;;28.87;4.43;;;5.30;99.90;;;;;;5009116;28;20416;-52
2023/02/01 05:15:19;;;;;;;27.67;3.90;;;5.20;99.90;;;;;;4947625;29;20464;-51
2023/02/01 05:17:45;;;;;;;22.43;3.33;;;5.30;99.90;;;;;;4996515;28;20041;-53
2023/02/01 05:20:11;;;;;;;18.40;3.60;;;5.30;99.90;;;;;;5009140;28;20065;-52
2023/02/01 05:22:37;;;;;;;24.07;4.30;;;5.30;99.90;;;;;;5009607;28;20026;-53
2023/02/01 05:25:03;;;;;;;29.60;4.27;;;5.30;99.90;;;;;;5008614;28;20034;-50
2023/02/01 05:27:30;;;;;;;25.20;4.27;;;5.20;99.90;;;;;;5009668;28;20063;-53
2023/02/01 05:29:56;;;;;;;26.47;3.50;;;5.20;99.90;;;;;;5008416;28;20533;-54
2023/02/01 05:32:22;;;;;;;26.07;3.57;;;5.10;99.90;;;;;;5025709;28;20110;-49
2023/02/01 05:34:47;;;;;;;20.03;3.03;;;5.20;99.90;;;;;;5028306;28;20038;-52
2023/02/01 05:37:13;;;;;;;25.10;3.43;;;5.10;99.90;;;;;;5029127;28;20025;-53
2023/02/01 05:39:39;;;;;;;20.93;4.00;;;5.10;99.90;;;;;;5028316;28;20025;-53
2023/02/01 05:42:04;;;;;;;19.10;3.40;;;5.00;99.90;;;;;;5031844;28;20116;-53
2023/02/01 05:44:30;;;;;;;22.93;3.57;;;5.00;99.90;;;;;;5031703;28;20406;-54
2023/02/01 05:46:56;;;;;;;23.43;4.43;;;5.00;99.90;;;;;;5032431;28;20044;-50
2023/02/01 05:49:21;;;;;;;19.80;4.37;;;5.00;99.90;;;;;;5032451;28;20030;-51
2023/02/01 05:51:47;;;;;;;23.20;4.07;;;4.90;99.90;;;;;;5032798;28;20403;-52
2023/02/01 05:54:13;;;;;;;22.70;3.47;;;4.90;99.90;;;;;;5031730;28;20091;-54
2023/02/01 05:56:40;;;;;;;21.80;3.73;;;4.90;99.90;;;;;;5032527;28;20045;-51
2023/02/01 05:59:06;;;;;;;24.50;3.50;;;4.90;99.90;;;;;;5030496;28;20033;-53
2023/02/01 06:01:32;;;;;;;19.10;3.23;;;4.90;99.90;;;;;;5032891;28;20031;-53
2023/02/01 06:03:57;;;;;;;20.50;3.50;;;4.90;99.90;;;;;;5032129;28;20371;-53
2023/02/01 06:06:23;;;;;;;33.53;4.17;;;4.90;99.90;;;;;;5032520;28;20128;-52
2023/02/01 06:08:49;;;;;;;20.53;3.80;;;5.00;99.90;;;;;;5031729;28;20040;-52
2023/02/01 06:11:14;;;;;;;27.40;4.47;;;5.00;99.90;;;;;;5032571;28;20183;-52
2023/02/01 06:13:40;;;;;;;27.43;4.77;;;5.00;99.90;;;;;;5031678;28;20108;-53
2023/02/01 06:16:07;;;;;;;25.63;4.47;;;5.00;99.90;;;;;;5032441;28;20375;-50
2023/02/01 06:18:34;;;;;;;26.10;4.00;;;5.00;99.90;;;;;;5031843;28;20056;-53
2023/02/01 06:21:00;;;;;;;23.93;4.07;;;5.10;99.90;;;;;;5032409;28;20029;-54
2023/02/01 06:23:26;;;;;;;21.87;3.77;;;5.10;99.90;;;;;;5031342;28;20022;-53
2023/02/01 06:25:59;;;;;;;27.97;4.60;;;5.20;99.90;;;;;;5032514;28;20044;-56
2023/02/01 06:28:25;;;;;;;25.57;3.87;;;5.20;99.90;;;;;;5031106;28;20462;-54
2023/02/01 06:30:50;;;;;;;24.10;4.83;;;5.20;99.90;;;;;;5032221;28;20041;-56
2023/02/01 06:33:16;;;;;;;24.77;3.63;;;5.20;99.90;;;;;;5030138;28;20032;-57
2023/02/01 06:35:44;;;;;;;23.00;3.40;;;5.30;99.90;;;;;;5031916;28;20037;-56
2023/02/01 06:38:11;;;;;;;20.70;3.50;;;5.40;99.90;;;;;;5030720;28;20037;-55
2023/02/01 06:40:38;;;;;;;23.37;3.73;;;5.30;99.90;;;;;;5032000;28;20040;-54
2023/02/01 06:43:03;;;;;;;20.37;3.60;;;5.40;99.90;;;;;;5031032;28;20040;-55
2023/02/01 06:45:29;;;;;;;23.93;3.50;;;5.40;99.90;;;;;;5031657;28;20030;-54
2023/02/01 06:47:55;;;;;;;26.50;5.13;;;5.50;99.90;;;;;;5031298;28;20037;-52
2023/02/01 06:50:21;;;;;;;21.10;4.20;;;5.50;99.90;;;;;;5031494;28;20045;-52
2023/02/01 06:52:47;;;;;;;20.60;3.73;;;5.50;99.90;;;;;;5030973;28;20045;-53
2023/02/01 06:55:13;;;;;;;28.90;4.60;;;5.60;99.90;;;;;;5031037;28;20037;-48
2023/02/01 06:57:39;;;;;;;24.17;4.47;;;5.60;99.90;;;;;;5031580;28;20103;-44
2023/02/01 07:00:05;;;;;;;21.57;3.50;;;5.60;99.90;;;;;;5030772;28;20017;-53
2023/02/01 07:02:31;;;;;;;18.73;3.43;;;5.60;99.90;;;;;;5031619;28;20367;-52
2023/02/01 07:04:56;;;;;;;24.27;4.00;;;5.60;99.90;;;;;;5030912;28;20037;-53
2023/02/01 07:07:22;;;;;;;23.27;4.07;;;5.70;99.90;;;;;;5030848;28;20045;-53
2023/02/01 07:09:51;;;;;;;28.23;3.37;;;5.70;99.90;;;;;;5030593;28;20033;-53
2023/02/01 07:12:16;;;;;;;22.80;3.97;;;5.70;99.90;;;;;;5031553;28;20107;-53
2023/02/01 07:14:42;;;;;;;28.30;4.87;;;5.70;99.90;;;;;;5030096;28;20514;-54
2023/02/01 07:17:08;;;;;;;27.23;4.43;;;5.70;99.90;;;;;;5031196;28;20036;-53
2023/02/01 07:19:33;;;;;;;25.73;4.10;;;5.70;99.90;;;;;;5030653;28;20029;-53
2023/02/01 07:21:59;;;;;;;26.13;3.70;;;5.80;99.90;;;;;;5031150;28;20150;-53
2023/02/01 07:24:25;;;;;;;19.33;3.37;;;5.80;99.90;;;;;;5030187;28;20079;-53
2023/02/01 07:26:50;;;;;;;25.23;4.47;;;5.80;99.90;;;;;;5030965;28;20435;-54
2023/02/01 07:29:18;;;;;;;21.70;3.63;;;5.90;99.90;;;;;;5029991;28;20025;-52
2023/02/01 07:31:45;;;;;;;25.40;4.27;;;5.90;99.90;;;;;;5031217;28;20025;-51
2023/02/01 07:34:11;;;;;;;21.27;4.00;;;5.90;99.90;;;;;;5030356;28;20106;-54
2023/02/01 07:36:36;;;;;;;27.93;4.00;;;5.80;99.90;;;;;;5031183;28;20029;-54
2023/02/01 07:39:05;;;;;;;22.87;3.87;;;5.90;99.90;;;;;;5030371;28;20052;-53
2023/02/01 07:41:31;;;;;;;50.97;17.45;;;5.80;99.90;;;;;;5030950;28;20406;-54
2023/02/01 07:43:56;;;;;;;26.67;4.50;;;5.80;99.90;;;;;;5029074;28;20036;-44
2023/02/01 07:46:23;;;;;;;26.37;5.50;;;5.90;99.90;;;;;;5029748;28;20133;-45
2023/02/01 07:48:48;;;;;;;23.37;3.57;;;6.30;99.90;;;;;;5023783;28;20049;-45
2023/02/01 07:51:16;;;;;;;21.47;3.73;;;6.50;99.90;;;;;;5021886;28;20452;-44
2023/02/01 07:53:43;;;;;;;22.13;4.37;;;6.50;99.90;;;;;;5029459;28;20116;-44
2023/02/01 07:56:13;;;;;;;25.63;3.70;;;6.50;99.90;;;;;;5029442;28;20099;-54
2023/02/01 07:58:39;;;;;;;26.13;3.90;;;6.40;99.90;;;;;;5028624;28;20473;-54
2023/02/01 08:01:20;;;;;;;26.87;4.30;;;6.30;99.90;;;;;;5030050;28;20068;-53
2023/02/01 08:03:51;;;;;;;24.97;4.17;;;6.30;99.90;;;;;;5028770;28;20108;-53
2023/02/01 08:06:17;;;;;;;23.80;4.20;;;6.30;99.90;;;;;;5029763;28;20053;-55
2023/02/01 08:08:46;;;;;;;29.90;4.43;;;6.10;99.90;;;;;;5029294;28;20057;-54
2023/02/01 08:11:13;;;;;;;20.33;3.83;;;6.10;99.90;;;;;;5030004;28;20144;-54
2023/02/01 08:13:40;;;;;;;21.93;4.60;;;6.10;99.90;;;;;;5028592;28;20079;-51
2023/02/01 08:16:07;;;;;;;23.70;4.30;;;6.10;99.90;;;;;;5029717;28;20033;-52
2023/02/01 08:18:35;;;;;;;31.67;4.90;;;6.10;99.90;;;;;;5028920;28;20443;-57
2023/02/01 08:21:19;;;;;;;24.23;4.10;;;6.10;99.90;;;;;;5029824;28;20067;-55
2023/02/01 08:23:45;;;;;;;25.77;4.13;;;6.10;99.90;;;;;;5028720;28;20395;-51
2023/02/01 08:26:18;;;;;;;22.40;3.97;;;6.20;99.90;;;;;;5029739;28;20053;-52
2023/02/01 08:28:50;;;;;;;25.50;4.33;;;6.10;99.90;;;;;;5028263;28;20041;-51
2023/02/01 08:31:18;;;;;;;19.83;3.83;;;6.10;99.90;;;;;;5029621;28;20394;-52
2023/02/01 08:33:49;;;;;;;20.07;3.70;;;6.20;99.90;;;;;;5028412;28;20078;-52
2023/02/01 08:36:14;;;;;;;26.27;3.83;;;6.30;99.90;;;;;;5009871;28;20030;-49
2023/02/01 08:38:40;;;;;;;27.00;4.37;;;6.20;99.90;;;;;;5008639;28;20038;-50
2023/02/01 08:41:15;;;;;;;23.77;4.20;;;6.30;99.90;;;;;;5009895;28;20034;-48
2023/02/01 08:43:41;;;;;;;23.47;4.83;;;6.20;99.90;;;;;;5008617;28;20034;-51
2023/02/01 08:46:08;;;;;;;27.57;4.40;;;6.20;99.90;;;;;;5009828;28;20038;-54
2023/02/01 08:48:34;;;;;;;25.10;4.43;;;6.20;99.90;;;;;;5008699;28;20411;-50
2023/02/01 08:51:09;;;;;;;21.67;4.27;;;6.20;99.90;;;;;;5009619;28;20030;-51
2023/02/01 08:53:35;;;;;;;27.37;4.13;;;6.30;99.90;;;;;;5008333;28;20112;-52
2023/02/01 08:56:02;;;;;;;21.53;4.73;;;6.30;99.90;;;;;;5009236;28;20113;-53
2023/02/01 08:58:28;;;;;;;21.50;3.97;;;6.30;99.90;;;;;;5008128;28;20049;-52
2023/02/01 09:00:54;;;;;;;27.10;4.27;;;6.40;99.90;;;;;;5011198;28;20486;-52
2023/02/01 09:03:21;;;;;;;27.83;4.80;;;6.40;99.90;;;;;;5028369;28;20030;-52
2023/02/01 09:05:47;;;;;;;23.77;4.13;;;6.40;99.90;;;;;;5028716;28;20564;-52
2023/02/01 09:08:14;;;;;;;27.27;4.43;;;6.30;99.90;;;;;;5027896;28;20521;-53
2023/02/01 09:10:41;;;;;;;24.00;3.97;;;6.30;99.90;;;;;;5028743;28;20203;-51
2023/02/01 09:13:08;;;;;;;19.30;3.67;;;6.30;99.90;;;;;;5027917;28;20034;-53
2023/02/01 09:15:34;;;;;;;22.23;4.20;;;6.30;99.90;;;;;;5028130;28;20029;-51
2023/02/01 09:17:59;;;;;;;26.77;5.13;;;6.30;99.90;;;;;;5028344;28;20075;-52
2023/02/01 09:20:25;;;;;;;21.43;3.73;;;6.20;99.90;;;;;;5028479;28;20513;-51
2023/02/01 09:22:52;;;;;;;21.90;3.63;;;6.20;99.90;;;;;;5028770;28;20108;-52
2023/02/01 09:25:18;;;;;;;21.77;4.13;;;6.20;99.90;;;;;;5028394;28;20033;-51
2023/02/01 09:27:44;;;;;;;17.20;3.30;;;6.20;99.90;;;;;;5028045;28;20037;-53
2023/02/01 09:30:10;;;;;;;27.17;4.47;;;6.20;99.90;;;;;;5027918;28;20086;-51
2023/02/01 09:32:36;;;;;;;20.20;3.70;;;6.20;99.90;;;;;;5028661;28;20454;-52
2023/02/01 09:35:02;;;;;;;24.07;4.30;;;6.30;99.90;;;;;;5028082;28;20025;-52
2023/02/01 09:37:27;;;;;;;21.77;4.77;;;6.30;99.90;;;;;;5028189;28;20033;-52
2023/02/01 09:39:53;;;;;;;22.53;4.30;;;6.30;99.90;;;;;;5028028;28;20160;-52
2023/02/01 09:45:20;;;;;;;16.47;3.47;;;6.50;99.90;;;;;;4966048;28;20168;-51
2023/02/01 09:47:55;;;;;;;24.97;4.57;;;6.60;99.90;;;;;;4969038;28;20038;-53
2023/02/01 09:50:35;;;;;;;17.43;3.50;;;6.60;99.90;;;;;;4969917;28;20144;-52
2023/02/01 09:53:07;;;;;;;;;;;6.60;99.90;;;;;;4975576;28;20390;-52
2023/02/01 09:55:59;;;;;;;21.63;3.87;;;6.70;99.90;;;;;;4988874;28;19925;-51
2023/02/01 09:58:39;;;;;;;21.77;3.73;;;6.80;99.90;;;;;;4987635;28;20045;-51
2023/02/01 10:01:16;;;;;;;18.87;3.67;;;6.80;99.90;;;;;;4989272;28;20038;-51
2023/02/01 10:03:42;;;;;;;19.10;3.43;;;6.80;99.90;;;;;;4988378;28;20056;-52
2023/02/01 10:06:50;;;;;;;15.07;3.57;;;6.90;99.90;;;;;;4989347;28;20096;-50
2023/02/01 10:09:39;;;;;;;23.13;4.83;;;6.80;99.90;;;;;;4947075;29;20043;-48
2023/02/01 10:12:28;;;;;;;31.98;5.80;;;6.90;99.90;;;;;;4947792;28;20373;-49
2023/02/01 10:14:54;;;;;;;;;;;7.10;99.90;;;;;;4978196;28;20468;-53
2023/02/01 10:17:43;;;;;;;18.30;3.27;;;7.40;99.90;;;;;;4989097;28;19984;-53
2023/02/01 10:20:22;;;;;;;;;;;7.70;99.90;;;;;;4989641;28;20106;-54
2023/02/01 10:23:23;;;;;;;17.00;3.75;;;7.80;99.90;;;;;;4989191;28;20461;-48
2023/02/01 10:26:22;;;;;;;19.83;3.77;;;8.10;99.90;;;;;;4969703;28;20081;-46
2023/02/01 10:28:59;;;;;;;14.18;3.47;;;8.00;99.90;;;;;;4957516;28;20432;-47
2023/02/01 10:31:29;;;;;;;23.77;4.50;;;8.10;99.90;;;;;;4992875;28;20343;-50
2023/02/01 10:34:00;;;;;;;22.02;4.18;;;7.90;99.90;;;;;;4991998;28;20034;-46
2023/02/01 10:36:37;;;;;;;16.97;3.57;;;7.70;99.90;;;;;;4992416;28;20404;-51
2023/02/01 10:39:06;;;;;;;20.23;4.03;;;7.60;99.90;;;;;;4991784;28;20426;-50
2023/02/01 10:41:39;;;;;;;22.83;3.97;;;7.50;99.90;;;;;;4992616;28;20114;-52
2023/02/01 10:44:11;;;;;;;17.83;3.57;;;7.50;99.90;;;;;;4990725;28;20049;-49
2023/02/01 10:46:37;;;;;;;21.10;3.83;;;7.30;99.90;;;;;;4992186;28;20485;-48
2023/02/01 10:49:06;;;;;;;19.47;3.90;;;7.20;99.90;;;;;;4992083;28;20069;-46
2023/02/01 10:51:50;;;;;;;17.85;3.55;;;7.20;99.90;;;;;;4992942;28;20045;-46
2023/02/01 10:54:20;;;;;;;20.23;3.77;;;7.20;99.90;;;;;;4991133;28;20026;-49
2023/02/01 10:56:46;;;;;;;;;;;7.30;99.90;;;;;;4992558;28;20121;-47
2023/02/01 10:59:20;;;;;;;22.60;4.40;;;7.30;99.90;;;;;;4990911;28;20054;-50
2023/02/01 11:01:48;;;;;;;15.80;3.33;;;7.30;99.90;;;;;;4992060;28;20045;-45
2023/02/01 11:04:24;;;;;;;20.53;3.67;;;7.30;99.90;;;;;;4991151;28;20404;-49
2023/02/01 11:07:08;;;;;;;20.73;3.47;;;7.20;99.90;;;;;;4991637;28;20061;-51
2023/02/01 11:09:39;;;;;;;20.23;4.43;;;7.30;99.90;;;;;;4990385;28;20053;-45
2023/02/01 11:12:20;;;;;;;22.60;3.90;;;7.60;99.90;;;;;;4991703;28;20026;-49
2023/02/01 11:14:47;;;;;;;22.93;3.93;;;8.00;99.90;;;;;;4990023;28;20061;-45
2023/02/01 11:17:19;;;;;;;20.83;4.53;;;8.30;99.90;;;;;;4991668;28;20046;-47
2023/02/01 11:19:46;;;;;;;22.37;3.70;;;8.40;99.90;;;;;;4991528;28;20034;-45
2023/02/01 11:22:13;;;;;;;20.97;4.20;;;8.20;99.90;;;;;;4991865;28;20032;-47
2023/02/01 11:24:44;;;;;;;20.90;3.50;;;8.00;99.90;;;;;;4990815;28;20042;-46
2023/02/01 11:27:22;;;;;;;20.30;3.77;;;7.90;99.90;;;;;;4990908;28;20108;-45
2023/02/01 11:29:52;;;;;;;23.60;4.47;;;7.80;99.90;;;;;;4990778;28;20038;-46
2023/02/01 11:32:20;;;;;;;15.27;3.63;;;7.70;99.90;;;;;;4991506;28;20348;-47
2023/02/01 11:34:59;;;;;;;19.07;3.57;;;7.60;99.90;;;;;;4989719;28;20479;-49
2023/02/01 11:37:43;;;;;;;16.15;4.15;;;7.50;99.90;;;;;;4990997;28;20030;-48
2023/02/01 11:40:17;;;;;;;17.37;3.33;;;7.50;99.90;;;;;;4990625;28;20037;-49
2023/02/01 11:42:58;;;;;;;20.80;3.90;;;7.50;99.90;;;;;;4991202;28;20026;-49
2023/02/01 11:45:31;;;;;;;22.07;4.10;;;7.60;99.90;;;;;;4990137;28;20093;-49
2023/02/01 11:47:58;;;;;;;17.07;3.43;;;7.60;99.90;;;;;;4990401;28;20483;-51
2023/02/01 11:50:47;;;;;;;19.33;4.03;;;7.60;99.90;;;;;;4991031;28;20121;-50
2023/02/01 11:53:40;;;;;;;14.77;3.92;;;7.60;99.90;;;;;;4990544;28;20038;-48
2023/02/01 11:56:31;;;;;;;20.33;4.50;;;7.40;99.90;;;;;;4990714;28;20030;-50
2023/02/01 11:59:21;;;;;;;19.17;3.73;;;7.30;99.90;;;;;;4990016;28;20329;-47
2023/02/01 12:02:05;;;;;;;22.17;3.90;;;7.20;99.90;;;;;;4981154;28;20177;-50
2023/02/01 12:05:19;;;;;;;21.57;4.37;;;7.30;99.90;;;;;;4980094;28;20030;-47
2023/02/01 12:07:57;;;;;;;22.23;4.27;;;7.30;99.90;;;;;;4966663;28;20651;-46
2023/02/01 12:11:00;;;;;;;19.27;3.77;;;7.30;99.90;;;;;;4990270;28;20033;-48
2023/02/01 12:13:47;;;;;;;14.13;3.43;;;7.20;99.90;;;;;;4976777;28;20415;-46
2023/02/01 12:16:47;;;;;;;20.73;4.13;;;7.20;99.90;;;;;;4990271;28;20058;-46
2023/02/01 12:19:30;;;;;;;26.40;4.53;;;7.20;99.90;;;;;;4989798;28;20067;-46
2023/02/01 12:22:18;;;;;;;17.80;3.30;;;7.20;99.90;;;;;;4990326;28;20035;-46
2023/02/01 12:25:03;;;;;;;19.20;3.50;;;7.30;99.90;;;;;;4989396;28;20050;-46
2023/02/01 12:27:44;;;;;;;22.90;3.30;;;7.40;99.90;;;;;;4989579;28;20121;-45
2023/02/01 12:30:10;;;;;;;19.00;3.60;;;7.40;99.90;;;;;;4989059;28;20023;-47
2023/02/01 12:32:57;;;;;;;20.00;3.70;;;7.40;99.90;;;;;;4990142;28;20474;-50
2023/02/01 12:35:37;;;;;;;18.50;3.20;;;7.40;99.90;;;;;;4989774;28;20105;-49
2023/02/01 12:38:32;;;;;;;15.83;2.90;;;7.40;99.90;;;;;;4976907;28;20035;-51
2023/02/01 12:41:16;;;;;;;16.80;2.97;;;7.40;99.90;;;;;;4917384;28;20139;-49
2023/02/01 12:44:06;;;;;;;14.63;2.60;;;7.50;99.90;;;;;;4969425;28;20038;-46
2023/02/01 12:47:03;;;;;;;13.60;2.50;;;7.50;99.90;;;;;;4952745;28;20515;-50
2023/02/01 12:49:46;;;;;;;21.87;3.00;;;7.50;99.90;;;;;;4955480;28;20420;-51
2023/02/01 12:53:01;;;;;;;17.37;2.30;;;7.60;99.90;;;;;;4970465;28;20039;-47
2023/02/01 12:55:38;;;;;;;16.40;2.90;;;7.60;99.90;;;;;;4966289;28;20109;-48
2023/02/01 12:58:20;;;;;;;15.33;2.97;;;7.60;99.90;;;;;;4969305;28;20056;-49
2023/02/01 13:01:11;;;;;;;18.07;2.57;;;7.50;99.90;;;;;;4970254;28;20054;-47
2023/02/01 13:03:50;;;;;;;20.17;2.90;;;7.50;99.90;;;;;;4969855;28;20039;-49
2023/02/01 13:06:34;;;;;;;12.75;2.20;;;7.50;99.90;;;;;;4970219;28;20106;-46
2023/02/01 13:09:21;;;;;;;19.47;3.20;;;7.50;99.90;;;;;;4969465;28;20046;-48
2023/02/01 13:11:49;;;;;;;18.17;2.47;;;7.50;99.90;;;;;;4970278;28;20031;-47
2023/02/01 13:14:23;;;;;;;16.23;2.80;;;7.60;99.90;;;;;;4969153;28;20023;-50
2023/02/01 13:16:53;;;;;;;11.83;2.40;;;7.60;99.90;;;;;;4969820;28;20120;-50
2023/02/01 13:19:27;;;;;;;12.90;2.50;;;7.60;99.90;;;;;;4969914;28;20443;-50
2023/02/01 13:21:59;;;;;;;18.33;3.20;;;7.60;99.90;;;;;;4970050;28;20391;-49
2023/02/01 13:24:38;;;;;;;16.83;2.87;;;7.60;99.90;;;;;;4969501;28;20559;-51
2023/02/01 13:27:04;;;;;;;17.00;3.58;;;7.60;99.90;;;;;;4969662;28;20069;-45
2023/02/01 13:29:31;;;;;;;17.50;2.83;;;7.50;99.90;;;;;;4968975;28;20070;-48
2023/02/01 13:32:27;;;;;;;16.63;3.03;;;7.60;99.90;;;;;;4970080;28;20058;-48
2023/02/01 13:35:14;;;;;;;18.60;3.10;;;7.60;99.90;;;;;;4969580;28;20042;-49
2023/02/01 13:38:22;;;;;;;18.27;2.53;;;7.60;99.90;;;;;;4969619;28;20035;-47